sensor_id;sensor_type;location;lat;lon;timestamp;P1;durP1;ratioP1;P2;durP2;ratioP2
15202;SDS011;7702;51.046;5.184;2023-07-29T00:01:34;3.00;;;2.63;;
15202;SDS011;7702;51.046;5.184;2023-07-29T00:04:00;3.03;;;2.77;;
15202;SDS011;7702;51.046;5.184;2023-07-29T00:06:26;3.10;;;2.87;;
15202;SDS011;7702;51.046;5.184;2023-07-29T00:08:52;3.20;;;2.87;;
15202;SDS011;7702;51.046;5.184;2023-07-29T00:11:18;2.97;;;2.77;;
15202;SDS011;7702;51.046;5.184;2023-07-29T00:13:44;2.90;;;2.60;;
15202;SDS011;7702;51.046;5.184;2023-07-29T00:16:10;3.40;;;2.33;;
15202;SDS011;7702;51.046;5.184;2023-07-29T00:18:36;3.80;;;2.57;;
15202;SDS011;7702;51.046;5.184;2023-07-29T00:21:01;2.70;;;2.50;;
15202;SDS011;7702;51.046;5.184;2023-07-29T00:23:27;2.70;;;2.50;;
15202;SDS011;7702;51.046;5.184;2023-07-29T00:25:54;2.73;;;2.53;;
15202;SDS011;7702;51.046;5.184;2023-07-29T00:28:19;2.67;;;2.50;;
15202;SDS011;7702;51.046;5.184;2023-07-29T00:30:45;2.27;;;2.17;;
15202;SDS011;7702;51.046;5.184;2023-07-29T00:33:11;2.90;;;2.70;;
15202;SDS011;7702;51.046;5.184;2023-07-29T00:35:36;2.83;;;2.40;;
15202;SDS011;7702;51.046;5.184;2023-07-29T00:38:02;2.47;;;2.27;;
15202;SDS011;7702;51.046;5.184;2023-07-29T00:40:28;3.13;;;2.47;;
15202;SDS011;7702;51.046;5.184;2023-07-29T00:42:55;2.60;;;2.40;;
15202;SDS011;7702;51.046;5.184;2023-07-29T00:45:20;3.50;;;2.53;;
15202;SDS011;7702;51.046;5.184;2023-07-29T00:47:46;2.70;;;2.50;;
15202;SDS011;7702;51.046;5.184;2023-07-29T00:50:13;4.00;;;2.27;;
15202;SDS011;7702;51.046;5.184;2023-07-29T00:52:40;2.20;;;2.10;;
15202;SDS011;7702;51.046;5.184;2023-07-29T00:55:07;2.30;;;2.10;;
15202;SDS011;7702;51.046;5.184;2023-07-29T00:57:33;2.53;;;2.17;;
15202;SDS011;7702;51.046;5.184;2023-07-29T01:00:00;2.67;;;2.30;;
15202;SDS011;7702;51.046;5.184;2023-07-29T01:02:26;4.70;;;2.97;;
15202;SDS011;7702;51.046;5.184;2023-07-29T01:04:54;2.53;;;2.33;;
15202;SDS011;7702;51.046;5.184;2023-07-29T01:07:23;2.30;;;2.10;;
15202;SDS011;7702;51.046;5.184;2023-07-29T01:10:07;3.47;;;2.20;;
15202;SDS011;7702;51.046;5.184;2023-07-29T01:12:51;2.43;;;2.23;;
15202;SDS011;7702;51.046;5.184;2023-07-29T01:15:32;2.90;;;2.33;;
15202;SDS011;7702;51.046;5.184;2023-07-29T01:21:05;2.53;;;2.37;;
15202;SDS011;7702;51.046;5.184;2023-07-29T01:23:33;2.53;;;2.33;;
15202;SDS011;7702;51.046;5.184;2023-07-29T01:26:00;2.23;;;2.13;;
15202;SDS011;7702;51.046;5.184;2023-07-29T01:28:26;4.37;;;2.40;;
15202;SDS011;7702;51.046;5.184;2023-07-29T01:30:54;2.70;;;2.50;;
15202;SDS011;7702;51.046;5.184;2023-07-29T01:34:09;3.10;;;2.30;;
15202;SDS011;7702;51.046;5.184;2023-07-29T01:36:43;2.57;;;2.00;;
15202;SDS011;7702;51.046;5.184;2023-07-29T01:39:11;2.43;;;2.20;;
15202;SDS011;7702;51.046;5.184;2023-07-29T01:41:38;1.80;;;1.70;;
15202;SDS011;7702;51.046;5.184;2023-07-29T01:44:04;3.20;;;1.60;;
15202;SDS011;7702;51.046;5.184;2023-07-29T01:46:34;1.80;;;1.70;;
15202;SDS011;7702;51.046;5.184;2023-07-29T01:49:00;2.03;;;1.83;;
15202;SDS011;7702;51.046;5.184;2023-07-29T01:51:25;1.60;;;1.50;;
15202;SDS011;7702;51.046;5.184;2023-07-29T01:53:51;1.80;;;1.70;;
15202;SDS011;7702;51.046;5.184;2023-07-29T01:56:17;1.80;;;1.57;;
15202;SDS011;7702;51.046;5.184;2023-07-29T01:58:42;1.83;;;1.30;;
15202;SDS011;7702;51.046;5.184;2023-07-29T02:01:08;1.60;;;1.50;;
15202;SDS011;7702;51.046;5.184;2023-07-29T02:03:34;3.40;;;1.63;;
15202;SDS011;7702;51.046;5.184;2023-07-29T02:05:59;1.43;;;1.40;;
15202;SDS011;7702;51.046;5.184;2023-07-29T02:08:25;4.23;;;1.43;;
15202;SDS011;7702;51.046;5.184;2023-07-29T02:10:50;1.50;;;1.40;;
15202;SDS011;7702;51.046;5.184;2023-07-29T02:13:16;1.77;;;1.67;;
15202;SDS011;7702;51.046;5.184;2023-07-29T02:15:42;2.00;;;1.80;;
15202;SDS011;7702;51.046;5.184;2023-07-29T02:18:07;3.20;;;1.70;;
15202;SDS011;7702;51.046;5.184;2023-07-29T02:20:33;2.93;;;1.73;;
15202;SDS011;7702;51.046;5.184;2023-07-29T02:22:59;2.87;;;1.50;;
15202;SDS011;7702;51.046;5.184;2023-07-29T02:25:24;2.50;;;1.50;;
15202;SDS011;7702;51.046;5.184;2023-07-29T02:27:50;2.73;;;1.40;;
15202;SDS011;7702;51.046;5.184;2023-07-29T02:30:16;1.60;;;1.50;;
15202;SDS011;7702;51.046;5.184;2023-07-29T02:32:41;1.53;;;1.43;;
15202;SDS011;7702;51.046;5.184;2023-07-29T02:35:07;2.53;;;1.57;;
15202;SDS011;7702;51.046;5.184;2023-07-29T02:37:33;3.13;;;1.63;;
15202;SDS011;7702;51.046;5.184;2023-07-29T02:39:59;4.97;;;1.70;;
15202;SDS011;7702;51.046;5.184;2023-07-29T02:42:25;3.10;;;1.70;;
15202;SDS011;7702;51.046;5.184;2023-07-29T02:44:51;1.77;;;1.67;;
15202;SDS011;7702;51.046;5.184;2023-07-29T02:47:16;1.40;;;1.30;;
15202;SDS011;7702;51.046;5.184;2023-07-29T02:49:42;1.43;;;1.33;;
15202;SDS011;7702;51.046;5.184;2023-07-29T02:52:08;1.83;;;1.37;;
15202;SDS011;7702;51.046;5.184;2023-07-29T02:54:33;1.30;;;1.20;;
15202;SDS011;7702;51.046;5.184;2023-07-29T02:56:59;2.67;;;1.40;;
15202;SDS011;7702;51.046;5.184;2023-07-29T02:59:25;1.73;;;1.50;;
15202;SDS011;7702;51.046;5.184;2023-07-29T03:01:51;2.40;;;1.50;;
15202;SDS011;7702;51.046;5.184;2023-07-29T03:04:18;1.70;;;1.60;;
15202;SDS011;7702;51.046;5.184;2023-07-29T03:06:44;3.50;;;1.70;;
15202;SDS011;7702;51.046;5.184;2023-07-29T03:09:09;1.63;;;1.47;;
15202;SDS011;7702;51.046;5.184;2023-07-29T03:11:35;1.80;;;1.60;;
15202;SDS011;7702;51.046;5.184;2023-07-29T03:14:01;3.73;;;1.57;;
15202;SDS011;7702;51.046;5.184;2023-07-29T03:16:27;2.37;;;1.60;;
15202;SDS011;7702;51.046;5.184;2023-07-29T03:18:52;2.03;;;1.60;;
15202;SDS011;7702;51.046;5.184;2023-07-29T03:21:18;1.57;;;1.30;;
15202;SDS011;7702;51.046;5.184;2023-07-29T03:23:44;2.03;;;1.63;;
15202;SDS011;7702;51.046;5.184;2023-07-29T03:26:09;2.10;;;1.40;;
15202;SDS011;7702;51.046;5.184;2023-07-29T03:28:36;1.83;;;1.50;;
15202;SDS011;7702;51.046;5.184;2023-07-29T03:31:05;1.50;;;1.40;;
15202;SDS011;7702;51.046;5.184;2023-07-29T03:33:31;2.07;;;1.70;;
15202;SDS011;7702;51.046;5.184;2023-07-29T03:35:57;2.00;;;1.80;;
15202;SDS011;7702;51.046;5.184;2023-07-29T03:38:23;1.20;;;1.20;;
15202;SDS011;7702;51.046;5.184;2023-07-29T03:40:50;1.97;;;1.57;;
15202;SDS011;7702;51.046;5.184;2023-07-29T03:43:15;3.07;;;1.90;;
15202;SDS011;7702;51.046;5.184;2023-07-29T03:45:41;3.07;;;1.57;;
15202;SDS011;7702;51.046;5.184;2023-07-29T03:48:07;1.97;;;1.77;;
15202;SDS011;7702;51.046;5.184;2023-07-29T03:50:33;2.53;;;1.80;;
15202;SDS011;7702;51.046;5.184;2023-07-29T03:53:00;2.20;;;2.00;;
15202;SDS011;7702;51.046;5.184;2023-07-29T03:55:28;2.13;;;1.73;;
15202;SDS011;7702;51.046;5.184;2023-07-29T03:57:55;2.70;;;1.60;;
15202;SDS011;7702;51.046;5.184;2023-07-29T04:00:21;3.70;;;1.70;;
15202;SDS011;7702;51.046;5.184;2023-07-29T04:02:47;2.10;;;1.90;;
15202;SDS011;7702;51.046;5.184;2023-07-29T04:05:12;1.97;;;1.57;;
15202;SDS011;7702;51.046;5.184;2023-07-29T04:07:38;3.20;;;1.93;;
15202;SDS011;7702;51.046;5.184;2023-07-29T04:10:04;3.37;;;1.80;;
15202;SDS011;7702;51.046;5.184;2023-07-29T04:12:31;3.00;;;2.00;;
15202;SDS011;7702;51.046;5.184;2023-07-29T04:14:57;2.63;;;1.97;;
15202;SDS011;7702;51.046;5.184;2023-07-29T04:17:23;2.20;;;2.00;;
15202;SDS011;7702;51.046;5.184;2023-07-29T04:19:48;2.43;;;2.20;;
15202;SDS011;7702;51.046;5.184;2023-07-29T04:22:15;2.30;;;2.00;;
15202;SDS011;7702;51.046;5.184;2023-07-29T04:24:41;3.10;;;1.93;;
15202;SDS011;7702;51.046;5.184;2023-07-29T04:27:06;3.47;;;1.87;;
15202;SDS011;7702;51.046;5.184;2023-07-29T04:29:32;3.40;;;2.23;;
15202;SDS011;7702;51.046;5.184;2023-07-29T04:31:57;3.33;;;2.10;;
15202;SDS011;7702;51.046;5.184;2023-07-29T04:34:23;2.60;;;1.80;;
15202;SDS011;7702;51.046;5.184;2023-07-29T04:36:49;2.13;;;1.90;;
15202;SDS011;7702;51.046;5.184;2023-07-29T04:39:15;2.20;;;1.80;;
15202;SDS011;7702;51.046;5.184;2023-07-29T04:41:40;1.80;;;1.70;;
15202;SDS011;7702;51.046;5.184;2023-07-29T04:44:06;2.50;;;1.57;;
15202;SDS011;7702;51.046;5.184;2023-07-29T04:46:32;1.87;;;1.77;;
15202;SDS011;7702;51.046;5.184;2023-07-29T04:48:58;2.67;;;1.73;;
15202;SDS011;7702;51.046;5.184;2023-07-29T04:51:24;3.23;;;1.80;;
15202;SDS011;7702;51.046;5.184;2023-07-29T04:53:50;2.30;;;2.10;;
15202;SDS011;7702;51.046;5.184;2023-07-29T04:56:16;3.57;;;2.10;;
15202;SDS011;7702;51.046;5.184;2023-07-29T04:58:42;2.73;;;2.00;;
15202;SDS011;7702;51.046;5.184;2023-07-29T05:01:07;2.30;;;2.10;;
15202;SDS011;7702;51.046;5.184;2023-07-29T05:03:33;3.90;;;1.80;;
15202;SDS011;7702;51.046;5.184;2023-07-29T05:05:59;2.80;;;2.10;;
15202;SDS011;7702;51.046;5.184;2023-07-29T05:08:28;3.23;;;2.00;;
15202;SDS011;7702;51.046;5.184;2023-07-29T05:10:54;2.27;;;1.90;;
15202;SDS011;7702;51.046;5.184;2023-07-29T05:13:20;2.80;;;1.73;;
15202;SDS011;7702;51.046;5.184;2023-07-29T05:15:47;2.43;;;2.13;;
15202;SDS011;7702;51.046;5.184;2023-07-29T05:18:13;5.67;;;1.77;;
15202;SDS011;7702;51.046;5.184;2023-07-29T05:20:39;2.30;;;1.83;;
15202;SDS011;7702;51.046;5.184;2023-07-29T05:23:04;1.97;;;1.57;;
15202;SDS011;7702;51.046;5.184;2023-07-29T05:25:30;3.50;;;2.00;;
15202;SDS011;7702;51.046;5.184;2023-07-29T05:27:56;2.70;;;1.80;;
15202;SDS011;7702;51.046;5.184;2023-07-29T05:30:22;2.47;;;1.50;;
15202;SDS011;7702;51.046;5.184;2023-07-29T05:32:48;1.70;;;1.60;;
15202;SDS011;7702;51.046;5.184;2023-07-29T05:35:14;4.43;;;2.23;;
15202;SDS011;7702;51.046;5.184;2023-07-29T05:37:40;3.73;;;2.17;;
15202;SDS011;7702;51.046;5.184;2023-07-29T05:40:06;2.43;;;1.73;;
15202;SDS011;7702;51.046;5.184;2023-07-29T05:42:33;3.20;;;2.20;;
15202;SDS011;7702;51.046;5.184;2023-07-29T05:44:59;1.70;;;1.60;;
15202;SDS011;7702;51.046;5.184;2023-07-29T05:47:25;1.70;;;1.60;;
15202;SDS011;7702;51.046;5.184;2023-07-29T05:49:51;2.40;;;1.80;;
15202;SDS011;7702;51.046;5.184;2023-07-29T05:52:17;3.03;;;1.53;;
15202;SDS011;7702;51.046;5.184;2023-07-29T05:54:43;2.70;;;1.80;;
15202;SDS011;7702;51.046;5.184;2023-07-29T05:57:10;3.57;;;1.60;;
15202;SDS011;7702;51.046;5.184;2023-07-29T05:59:36;3.67;;;1.73;;
15202;SDS011;7702;51.046;5.184;2023-07-29T06:02:02;2.47;;;1.37;;
15202;SDS011;7702;51.046;5.184;2023-07-29T06:04:28;1.50;;;1.40;;
15202;SDS011;7702;51.046;5.184;2023-07-29T06:06:53;1.77;;;1.40;;
15202;SDS011;7702;51.046;5.184;2023-07-29T06:09:20;2.40;;;2.20;;
15202;SDS011;7702;51.046;5.184;2023-07-29T06:11:47;1.57;;;1.43;;
15202;SDS011;7702;51.046;5.184;2023-07-29T06:14:12;1.50;;;1.40;;
15202;SDS011;7702;51.046;5.184;2023-07-29T06:16:38;2.33;;;1.37;;
15202;SDS011;7702;51.046;5.184;2023-07-29T06:19:04;2.40;;;1.30;;
15202;SDS011;7702;51.046;5.184;2023-07-29T06:21:30;1.43;;;1.33;;
15202;SDS011;7702;51.046;5.184;2023-07-29T06:23:56;2.53;;;1.50;;
15202;SDS011;7702;51.046;5.184;2023-07-29T06:26:21;3.77;;;1.60;;
15202;SDS011;7702;51.046;5.184;2023-07-29T06:28:47;1.20;;;1.10;;
15202;SDS011;7702;51.046;5.184;2023-07-29T06:31:13;1.60;;;1.50;;
15202;SDS011;7702;51.046;5.184;2023-07-29T06:33:39;2.20;;;1.27;;
15202;SDS011;7702;51.046;5.184;2023-07-29T06:36:04;2.83;;;1.40;;
15202;SDS011;7702;51.046;5.184;2023-07-29T06:38:30;1.23;;;0.97;;
15202;SDS011;7702;51.046;5.184;2023-07-29T06:40:56;1.63;;;1.53;;
15202;SDS011;7702;51.046;5.184;2023-07-29T06:43:22;1.83;;;1.20;;
15202;SDS011;7702;51.046;5.184;2023-07-29T06:45:47;0.93;;;0.90;;
15202;SDS011;7702;51.046;5.184;2023-07-29T06:48:13;1.80;;;1.30;;
15202;SDS011;7702;51.046;5.184;2023-07-29T06:50:39;1.83;;;1.27;;
15202;SDS011;7702;51.046;5.184;2023-07-29T06:53:05;1.37;;;1.20;;
15202;SDS011;7702;51.046;5.184;2023-07-29T06:55:31;1.97;;;1.10;;
15202;SDS011;7702;51.046;5.184;2023-07-29T06:57:57;1.83;;;1.23;;
15202;SDS011;7702;51.046;5.184;2023-07-29T07:00:23;1.37;;;1.27;;
15202;SDS011;7702;51.046;5.184;2023-07-29T07:02:49;1.20;;;1.10;;
15202;SDS011;7702;51.046;5.184;2023-07-29T07:05:14;1.30;;;1.30;;
15202;SDS011;7702;51.046;5.184;2023-07-29T07:07:40;1.47;;;1.03;;
15202;SDS011;7702;51.046;5.184;2023-07-29T07:10:06;1.30;;;1.20;;
15202;SDS011;7702;51.046;5.184;2023-07-29T07:12:32;1.40;;;1.30;;
15202;SDS011;7702;51.046;5.184;2023-07-29T07:14:57;1.10;;;0.93;;
15202;SDS011;7702;51.046;5.184;2023-07-29T07:17:23;2.87;;;1.17;;
15202;SDS011;7702;51.046;5.184;2023-07-29T07:19:49;1.43;;;1.20;;
15202;SDS011;7702;51.046;5.184;2023-07-29T07:22:15;1.33;;;1.10;;
15202;SDS011;7702;51.046;5.184;2023-07-29T07:24:41;1.93;;;1.00;;
15202;SDS011;7702;51.046;5.184;2023-07-29T07:27:06;1.70;;;1.37;;
15202;SDS011;7702;51.046;5.184;2023-07-29T07:29:32;1.80;;;1.27;;
15202;SDS011;7702;51.046;5.184;2023-07-29T07:31:58;1.23;;;0.90;;
15202;SDS011;7702;51.046;5.184;2023-07-29T07:34:24;0.77;;;0.77;;
15202;SDS011;7702;51.046;5.184;2023-07-29T07:36:51;2.47;;;0.70;;
15202;SDS011;7702;51.046;5.184;2023-07-29T07:39:16;1.53;;;1.10;;
15202;SDS011;7702;51.046;5.184;2023-07-29T07:41:42;1.13;;;1.00;;
15202;SDS011;7702;51.046;5.184;2023-07-29T07:44:08;1.30;;;0.90;;
15202;SDS011;7702;51.046;5.184;2023-07-29T07:46:34;2.20;;;1.13;;
15202;SDS011;7702;51.046;5.184;2023-07-29T07:49:00;1.60;;;1.27;;
15202;SDS011;7702;51.046;5.184;2023-07-29T07:51:26;2.00;;;1.23;;
15202;SDS011;7702;51.046;5.184;2023-07-29T07:53:52;1.17;;;1.00;;
15202;SDS011;7702;51.046;5.184;2023-07-29T07:56:17;1.00;;;1.00;;
15202;SDS011;7702;51.046;5.184;2023-07-29T07:58:43;1.10;;;1.00;;
15202;SDS011;7702;51.046;5.184;2023-07-29T08:01:09;1.10;;;1.00;;
15202;SDS011;7702;51.046;5.184;2023-07-29T08:03:35;0.90;;;0.90;;
15202;SDS011;7702;51.046;5.184;2023-07-29T08:06:01;1.50;;;1.00;;
15202;SDS011;7702;51.046;5.184;2023-07-29T08:08:27;1.03;;;1.00;;
15202;SDS011;7702;51.046;5.184;2023-07-29T08:10:53;1.23;;;1.00;;
15202;SDS011;7702;51.046;5.184;2023-07-29T08:13:21;1.90;;;0.90;;
15202;SDS011;7702;51.046;5.184;2023-07-29T08:15:47;1.10;;;1.00;;
15202;SDS011;7702;51.046;5.184;2023-07-29T08:18:14;0.70;;;0.70;;
15202;SDS011;7702;51.046;5.184;2023-07-29T08:20:40;1.27;;;1.10;;
15202;SDS011;7702;51.046;5.184;2023-07-29T08:23:06;1.07;;;0.97;;
15202;SDS011;7702;51.046;5.184;2023-07-29T08:25:32;1.10;;;0.80;;
15202;SDS011;7702;51.046;5.184;2023-07-29T08:28:00;2.27;;;1.30;;
15202;SDS011;7702;51.046;5.184;2023-07-29T08:30:26;1.10;;;0.80;;
15202;SDS011;7702;51.046;5.184;2023-07-29T08:32:52;2.70;;;1.00;;
15202;SDS011;7702;51.046;5.184;2023-07-29T08:35:17;1.23;;;0.90;;
15202;SDS011;7702;51.046;5.184;2023-07-29T08:37:43;1.27;;;1.23;;
15202;SDS011;7702;51.046;5.184;2023-07-29T08:40:09;1.20;;;1.10;;
15202;SDS011;7702;51.046;5.184;2023-07-29T08:42:35;0.90;;;0.90;;
15202;SDS011;7702;51.046;5.184;2023-07-29T08:45:07;2.30;;;0.90;;
15202;SDS011;7702;51.046;5.184;2023-07-29T08:47:33;1.30;;;0.83;;
15202;SDS011;7702;51.046;5.184;2023-07-29T08:49:59;0.87;;;0.87;;
15202;SDS011;7702;51.046;5.184;2023-07-29T08:52:27;1.43;;;0.90;;
15202;SDS011;7702;51.046;5.184;2023-07-29T08:54:55;1.27;;;0.90;;
15202;SDS011;7702;51.046;5.184;2023-07-29T08:57:21;0.97;;;0.87;;
15202;SDS011;7702;51.046;5.184;2023-07-29T08:59:48;2.10;;;0.97;;
15202;SDS011;7702;51.046;5.184;2023-07-29T09:02:14;1.10;;;1.00;;
15202;SDS011;7702;51.046;5.184;2023-07-29T09:04:39;0.90;;;0.90;;
15202;SDS011;7702;51.046;5.184;2023-07-29T09:07:05;1.20;;;1.10;;
15202;SDS011;7702;51.046;5.184;2023-07-29T09:09:32;1.00;;;1.00;;
15202;SDS011;7702;51.046;5.184;2023-07-29T09:11:58;1.87;;;1.10;;
15202;SDS011;7702;51.046;5.184;2023-07-29T09:14:24;1.20;;;0.80;;
15202;SDS011;7702;51.046;5.184;2023-07-29T09:16:50;1.60;;;1.00;;
15202;SDS011;7702;51.046;5.184;2023-07-29T09:19:16;1.00;;;1.00;;
15202;SDS011;7702;51.046;5.184;2023-07-29T09:21:42;2.00;;;1.00;;
15202;SDS011;7702;51.046;5.184;2023-07-29T09:24:07;1.73;;;0.97;;
15202;SDS011;7702;51.046;5.184;2023-07-29T09:26:34;0.97;;;0.90;;
15202;SDS011;7702;51.046;5.184;2023-07-29T09:29:00;1.67;;;0.93;;
15202;SDS011;7702;51.046;5.184;2023-07-29T09:31:26;1.20;;;1.10;;
15202;SDS011;7702;51.046;5.184;2023-07-29T09:34:03;1.03;;;1.03;;
15202;SDS011;7702;51.046;5.184;2023-07-29T09:36:33;1.37;;;1.27;;
15202;SDS011;7702;51.046;5.184;2023-07-29T09:38:59;1.97;;;1.10;;
15202;SDS011;7702;51.046;5.184;2023-07-29T09:41:25;0.77;;;0.77;;
15202;SDS011;7702;51.046;5.184;2023-07-29T09:44:02;1.30;;;1.20;;
15202;SDS011;7702;51.046;5.184;2023-07-29T09:46:35;2.33;;;1.33;;
15202;SDS011;7702;51.046;5.184;2023-07-29T09:49:02;2.23;;;0.90;;
15202;SDS011;7702;51.046;5.184;2023-07-29T09:51:36;1.67;;;1.17;;
15202;SDS011;7702;51.046;5.184;2023-07-29T09:54:04;1.70;;;1.27;;
15202;SDS011;7702;51.046;5.184;2023-07-29T09:56:32;1.20;;;1.10;;
15202;SDS011;7702;51.046;5.184;2023-07-29T09:58:57;1.60;;;1.20;;
15202;SDS011;7702;51.046;5.184;2023-07-29T10:01:23;1.97;;;1.20;;
15202;SDS011;7702;51.046;5.184;2023-07-29T10:03:50;1.60;;;1.00;;
15202;SDS011;7702;51.046;5.184;2023-07-29T10:06:16;1.07;;;1.07;;
15202;SDS011;7702;51.046;5.184;2023-07-29T10:08:43;1.37;;;1.27;;
15202;SDS011;7702;51.046;5.184;2023-07-29T10:11:10;1.27;;;1.00;;
15202;SDS011;7702;51.046;5.184;2023-07-29T10:13:37;1.23;;;1.13;;
15202;SDS011;7702;51.046;5.184;2023-07-29T10:16:04;1.20;;;1.07;;
15202;SDS011;7702;51.046;5.184;2023-07-29T10:18:31;2.40;;;1.37;;
15202;SDS011;7702;51.046;5.184;2023-07-29T10:20:58;2.13;;;1.27;;
15202;SDS011;7702;51.046;5.184;2023-07-29T10:23:25;1.63;;;1.33;;
15202;SDS011;7702;51.046;5.184;2023-07-29T10:25:54;1.20;;;1.20;;
15202;SDS011;7702;51.046;5.184;2023-07-29T10:28:25;1.20;;;1.10;;
15202;SDS011;7702;51.046;5.184;2023-07-29T10:30:54;1.60;;;1.50;;
15202;SDS011;7702;51.046;5.184;2023-07-29T10:33:20;1.83;;;1.20;;
15202;SDS011;7702;51.046;5.184;2023-07-29T10:35:46;2.57;;;1.30;;
15202;SDS011;7702;51.046;5.184;2023-07-29T10:38:12;1.23;;;1.10;;
15202;SDS011;7702;51.046;5.184;2023-07-29T10:40:49;1.23;;;1.13;;
15202;SDS011;7702;51.046;5.184;2023-07-29T10:43:24;1.30;;;1.20;;
15202;SDS011;7702;51.046;5.184;2023-07-29T10:45:51;1.70;;;1.30;;
15202;SDS011;7702;51.046;5.184;2023-07-29T10:53:56;1.37;;;1.27;;
15202;SDS011;7702;51.046;5.184;2023-07-29T10:56:43;1.57;;;1.47;;
15202;SDS011;7702;51.046;5.184;2023-07-29T11:01:41;1.40;;;1.30;;
15202;SDS011;7702;51.046;5.184;2023-07-29T11:17:51;1.83;;;1.70;;
15202;SDS011;7702;51.046;5.184;2023-07-29T11:20:22;1.43;;;1.17;;
15202;SDS011;7702;51.046;5.184;2023-07-29T11:22:50;1.40;;;1.30;;
15202;SDS011;7702;51.046;5.184;2023-07-29T11:25:16;1.47;;;1.40;;
15202;SDS011;7702;51.046;5.184;2023-07-29T11:27:43;1.50;;;1.40;;
15202;SDS011;7702;51.046;5.184;2023-07-29T11:30:10;1.40;;;1.37;;
15202;SDS011;7702;51.046;5.184;2023-07-29T11:32:38;1.40;;;1.23;;
15202;SDS011;7702;51.046;5.184;2023-07-29T11:35:06;1.87;;;1.77;;
15202;SDS011;7702;51.046;5.184;2023-07-29T11:37:33;1.40;;;1.40;;
15202;SDS011;7702;51.046;5.184;2023-07-29T11:40:00;1.73;;;1.63;;
15202;SDS011;7702;51.046;5.184;2023-07-29T11:42:26;2.07;;;1.87;;
15202;SDS011;7702;51.046;5.184;2023-07-29T11:44:53;1.73;;;1.50;;
15202;SDS011;7702;51.046;5.184;2023-07-29T11:47:21;3.03;;;1.70;;
15202;SDS011;7702;51.046;5.184;2023-07-29T11:49:47;1.80;;;1.70;;
15202;SDS011;7702;51.046;5.184;2023-07-29T11:52:12;1.70;;;1.60;;
15202;SDS011;7702;51.046;5.184;2023-07-29T11:54:38;4.50;;;2.00;;
15202;SDS011;7702;51.046;5.184;2023-07-29T11:57:07;1.60;;;1.47;;
15202;SDS011;7702;51.046;5.184;2023-07-29T11:59:34;1.93;;;1.83;;
15202;SDS011;7702;51.046;5.184;2023-07-29T12:02:01;1.70;;;1.60;;
15202;SDS011;7702;51.046;5.184;2023-07-29T12:04:30;2.20;;;1.90;;
15202;SDS011;7702;51.046;5.184;2023-07-29T12:06:57;1.73;;;1.63;;
15202;SDS011;7702;51.046;5.184;2023-07-29T12:09:23;2.03;;;1.60;;
15202;SDS011;7702;51.046;5.184;2023-07-29T12:11:49;1.73;;;1.60;;
15202;SDS011;7702;51.046;5.184;2023-07-29T12:14:16;1.50;;;1.40;;
15202;SDS011;7702;51.046;5.184;2023-07-29T12:16:42;1.90;;;1.80;;
15202;SDS011;7702;51.046;5.184;2023-07-29T12:19:11;1.97;;;1.80;;
15202;SDS011;7702;51.046;5.184;2023-07-29T12:21:38;1.93;;;1.77;;
15202;SDS011;7702;51.046;5.184;2023-07-29T12:24:06;1.70;;;1.60;;
15202;SDS011;7702;51.046;5.184;2023-07-29T12:26:31;1.77;;;1.67;;
15202;SDS011;7702;51.046;5.184;2023-07-29T12:28:58;1.70;;;1.50;;
15202;SDS011;7702;51.046;5.184;2023-07-29T12:31:32;1.80;;;1.70;;
15202;SDS011;7702;51.046;5.184;2023-07-29T12:33:58;1.83;;;1.73;;
15202;SDS011;7702;51.046;5.184;2023-07-29T12:36:39;1.90;;;1.60;;
15202;SDS011;7702;51.046;5.184;2023-07-29T12:39:15;1.43;;;1.43;;
15202;SDS011;7702;51.046;5.184;2023-07-29T12:41:44;1.90;;;1.70;;
15202;SDS011;7702;51.046;5.184;2023-07-29T12:44:10;1.60;;;1.50;;
15202;SDS011;7702;51.046;5.184;2023-07-29T12:46:36;1.80;;;1.70;;
15202;SDS011;7702;51.046;5.184;2023-07-29T12:49:01;1.50;;;1.40;;
15202;SDS011;7702;51.046;5.184;2023-07-29T12:51:27;3.27;;;1.70;;
15202;SDS011;7702;51.046;5.184;2023-07-29T12:53:56;1.73;;;1.63;;
15202;SDS011;7702;51.046;5.184;2023-07-29T12:56:21;1.83;;;1.73;;
15202;SDS011;7702;51.046;5.184;2023-07-29T12:58:47;1.60;;;1.50;;
15202;SDS011;7702;51.046;5.184;2023-07-29T13:01:13;2.37;;;2.03;;
15202;SDS011;7702;51.046;5.184;2023-07-29T13:03:42;2.10;;;2.00;;
15202;SDS011;7702;51.046;5.184;2023-07-29T13:06:11;2.40;;;2.00;;
15202;SDS011;7702;51.046;5.184;2023-07-29T13:08:37;1.30;;;1.30;;
15202;SDS011;7702;51.046;5.184;2023-07-29T13:11:03;2.07;;;1.90;;
15202;SDS011;7702;51.046;5.184;2023-07-29T13:13:29;1.70;;;1.60;;
15202;SDS011;7702;51.046;5.184;2023-07-29T13:15:56;2.20;;;2.00;;
15202;SDS011;7702;51.046;5.184;2023-07-29T13:18:22;2.97;;;2.47;;
15202;SDS011;7702;51.046;5.184;2023-07-29T13:20:47;3.33;;;2.67;;
15202;SDS011;7702;51.046;5.184;2023-07-29T13:23:13;4.37;;;2.60;;
15202;SDS011;7702;51.046;5.184;2023-07-29T13:25:40;3.57;;;3.27;;
15202;SDS011;7702;51.046;5.184;2023-07-29T13:28:06;2.97;;;2.77;;
15202;SDS011;7702;51.046;5.184;2023-07-29T13:30:32;3.33;;;2.87;;
15202;SDS011;7702;51.046;5.184;2023-07-29T13:32:58;3.30;;;3.00;;
15202;SDS011;7702;51.046;5.184;2023-07-29T13:35:25;3.47;;;3.17;;
15202;SDS011;7702;51.046;5.184;2023-07-29T13:37:51;2.43;;;2.23;;
15202;SDS011;7702;51.046;5.184;2023-07-29T13:40:16;3.00;;;2.20;;
15202;SDS011;7702;51.046;5.184;2023-07-29T13:42:42;2.10;;;2.00;;
15202;SDS011;7702;51.046;5.184;2023-07-29T13:45:08;2.40;;;2.20;;
15202;SDS011;7702;51.046;5.184;2023-07-29T13:47:34;2.50;;;2.30;;
15202;SDS011;7702;51.046;5.184;2023-07-29T13:50:00;4.20;;;2.00;;
15202;SDS011;7702;51.046;5.184;2023-07-29T13:52:26;1.77;;;1.67;;
15202;SDS011;7702;51.046;5.184;2023-07-29T13:54:52;2.37;;;1.90;;
15202;SDS011;7702;51.046;5.184;2023-07-29T13:57:18;1.70;;;1.60;;
15202;SDS011;7702;51.046;5.184;2023-07-29T13:59:43;1.77;;;1.67;;
15202;SDS011;7702;51.046;5.184;2023-07-29T14:02:09;1.70;;;1.60;;
15202;SDS011;7702;51.046;5.184;2023-07-29T14:04:35;1.90;;;1.80;;
15202;SDS011;7702;51.046;5.184;2023-07-29T14:07:00;1.80;;;1.70;;
15202;SDS011;7702;51.046;5.184;2023-07-29T14:09:26;2.10;;;2.00;;
15202;SDS011;7702;51.046;5.184;2023-07-29T14:11:53;2.07;;;1.93;;
15202;SDS011;7702;51.046;5.184;2023-07-29T14:14:19;1.60;;;1.50;;
15202;SDS011;7702;51.046;5.184;2023-07-29T14:16:45;1.47;;;1.47;;
15202;SDS011;7702;51.046;5.184;2023-07-29T14:19:12;1.80;;;1.70;;
15202;SDS011;7702;51.046;5.184;2023-07-29T14:21:37;1.40;;;1.40;;
15202;SDS011;7702;51.046;5.184;2023-07-29T14:24:03;3.53;;;2.00;;
15202;SDS011;7702;51.046;5.184;2023-07-29T14:26:29;1.40;;;1.40;;
15202;SDS011;7702;51.046;5.184;2023-07-29T14:28:55;1.70;;;1.60;;
15202;SDS011;7702;51.046;5.184;2023-07-29T14:31:20;2.90;;;1.70;;
15202;SDS011;7702;51.046;5.184;2023-07-29T14:33:47;1.90;;;1.60;;
15202;SDS011;7702;51.046;5.184;2023-07-29T14:36:14;1.50;;;1.40;;
15202;SDS011;7702;51.046;5.184;2023-07-29T14:38:40;4.07;;;1.47;;
15202;SDS011;7702;51.046;5.184;2023-07-29T14:41:06;1.33;;;1.10;;
15202;SDS011;7702;51.046;5.184;2023-07-29T14:43:32;1.43;;;1.33;;
15202;SDS011;7702;51.046;5.184;2023-07-29T14:45:58;2.20;;;1.30;;
15202;SDS011;7702;51.046;5.184;2023-07-29T14:48:24;1.50;;;1.50;;
15202;SDS011;7702;51.046;5.184;2023-07-29T14:50:50;1.57;;;1.47;;
15202;SDS011;7702;51.046;5.184;2023-07-29T14:53:15;2.33;;;1.50;;
15202;SDS011;7702;51.046;5.184;2023-07-29T14:55:42;1.50;;;1.47;;
15202;SDS011;7702;51.046;5.184;2023-07-29T14:58:07;1.30;;;1.30;;
15202;SDS011;7702;51.046;5.184;2023-07-29T15:00:33;3.30;;;1.20;;
15202;SDS011;7702;51.046;5.184;2023-07-29T15:02:59;1.60;;;1.50;;
15202;SDS011;7702;51.046;5.184;2023-07-29T15:05:24;1.23;;;1.23;;
15202;SDS011;7702;51.046;5.184;2023-07-29T15:07:50;1.40;;;1.40;;
15202;SDS011;7702;51.046;5.184;2023-07-29T15:10:16;1.30;;;1.30;;
15202;SDS011;7702;51.046;5.184;2023-07-29T15:12:42;2.00;;;1.90;;
15202;SDS011;7702;51.046;5.184;2023-07-29T15:15:09;1.47;;;1.47;;
15202;SDS011;7702;51.046;5.184;2023-07-29T15:17:36;1.27;;;1.27;;
15202;SDS011;7702;51.046;5.184;2023-07-29T15:20:02;1.70;;;1.60;;
15202;SDS011;7702;51.046;5.184;2023-07-29T15:22:31;1.70;;;1.53;;